Sharptown, New Jersey
Current Conditions -  °F | °C
As of 3:51 AM on Saturday 25 Oct 2014 (Local Time) from KILG Reporting Station
Clear Clear  
Wind Chill: 48°   Ceiling: Unl
Heat Index: 48°   Visibility: 10mi
Dew Point: 39°   Wind: 3mph
Humidity: 71%   Direction: 230°SW
Pressure: 29.92"   Gusts: NA
Location:  39.6335°N, 75.3233°W
Report Text: KILG 250751Z 23003KT 10SM CLR 09/04 A2992 RMK AO2 SLP131 T00890039
Loading
Personal Weather Stations






























Interactive Weather Map New forecast layout! Learn more

10-Day Weather Forecast

Advertisements
Track Severe Weather on mobile